sensor_id;sensor_type;location;lat;lon;timestamp;P1;durP1;ratioP1;P2;durP2;ratioP2
43160;SDS011;40968;52.342;5.528;2023-11-19T00:00:59;41.03;;;7.57;;
43160;SDS011;40968;52.342;5.528;2023-11-19T00:03:26;27.92;;;6.93;;
43160;SDS011;40968;52.342;5.528;2023-11-19T00:05:53;24.60;;;6.97;;
43160;SDS011;40968;52.342;5.528;2023-11-19T00:08:20;32.72;;;7.43;;
43160;SDS011;40968;52.342;5.528;2023-11-19T00:10:49;25.95;;;7.20;;
43160;SDS011;40968;52.342;5.528;2023-11-19T00:13:16;31.17;;;7.40;;
43160;SDS011;40968;52.342;5.528;2023-11-19T00:15:44;30.77;;;6.72;;
43160;SDS011;40968;52.342;5.528;2023-11-19T00:18:12;21.52;;;6.13;;
43160;SDS011;40968;52.342;5.528;2023-11-19T00:20:39;30.95;;;6.82;;
43160;SDS011;40968;52.342;5.528;2023-11-19T00:23:06;21.50;;;6.15;;
43160;SDS011;40968;52.342;5.528;2023-11-19T00:25:33;32.35;;;6.50;;
43160;SDS011;40968;52.342;5.528;2023-11-19T00:27:59;24.48;;;6.22;;
43160;SDS011;40968;52.342;5.528;2023-11-19T00:30:26;32.33;;;6.70;;
43160;SDS011;40968;52.342;5.528;2023-11-19T00:32:54;44.97;;;6.78;;
43160;SDS011;40968;52.342;5.528;2023-11-19T00:35:20;31.80;;;7.35;;
43160;SDS011;40968;52.342;5.528;2023-11-19T00:37:47;36.38;;;8.07;;
43160;SDS011;40968;52.342;5.528;2023-11-19T00:40:14;29.92;;;6.00;;
43160;SDS011;40968;52.342;5.528;2023-11-19T00:42:43;32.05;;;7.03;;
43160;SDS011;40968;52.342;5.528;2023-11-19T00:45:09;24.40;;;5.93;;
43160;SDS011;40968;52.342;5.528;2023-11-19T00:47:38;33.88;;;6.63;;
43160;SDS011;40968;52.342;5.528;2023-11-19T00:50:06;31.02;;;6.88;;
43160;SDS011;40968;52.342;5.528;2023-11-19T00:52:35;29.25;;;5.97;;
43160;SDS011;40968;52.342;5.528;2023-11-19T00:55:02;28.55;;;6.68;;
43160;SDS011;40968;52.342;5.528;2023-11-19T00:57:29;47.33;;;6.80;;
43160;SDS011;40968;52.342;5.528;2023-11-19T00:59:57;33.05;;;6.90;;
43160;SDS011;40968;52.342;5.528;2023-11-19T01:02:24;39.47;;;7.85;;
43160;SDS011;40968;52.342;5.528;2023-11-19T01:04:50;44.47;;;7.50;;
43160;SDS011;40968;52.342;5.528;2023-11-19T01:07:18;26.00;;;7.30;;
43160;SDS011;40968;52.342;5.528;2023-11-19T01:09:46;39.15;;;7.68;;
43160;SDS011;40968;52.342;5.528;2023-11-19T01:12:13;46.05;;;8.38;;
43160;SDS011;40968;52.342;5.528;2023-11-19T01:14:40;38.05;;;8.20;;
43160;SDS011;40968;52.342;5.528;2023-11-19T01:17:06;35.60;;;7.13;;
43160;SDS011;40968;52.342;5.528;2023-11-19T01:19:34;34.17;;;8.25;;
43160;SDS011;40968;52.342;5.528;2023-11-19T01:22:00;43.25;;;7.68;;
43160;SDS011;40968;52.342;5.528;2023-11-19T01:24:28;41.08;;;8.05;;
43160;SDS011;40968;52.342;5.528;2023-11-19T01:26:56;42.35;;;7.90;;
43160;SDS011;40968;52.342;5.528;2023-11-19T01:29:24;46.83;;;7.90;;
43160;SDS011;40968;52.342;5.528;2023-11-19T01:31:51;42.47;;;7.95;;
43160;SDS011;40968;52.342;5.528;2023-11-19T01:34:18;40.50;;;8.48;;
43160;SDS011;40968;52.342;5.528;2023-11-19T01:36:46;37.05;;;7.63;;
43160;SDS011;40968;52.342;5.528;2023-11-19T01:39:13;40.72;;;8.02;;
43160;SDS011;40968;52.342;5.528;2023-11-19T01:41:42;52.00;;;9.00;;
43160;SDS011;40968;52.342;5.528;2023-11-19T01:44:09;48.28;;;8.45;;
43160;SDS011;40968;52.342;5.528;2023-11-19T01:46:37;43.28;;;8.85;;
43160;SDS011;40968;52.342;5.528;2023-11-19T01:49:04;46.03;;;9.00;;
43160;SDS011;40968;52.342;5.528;2023-11-19T01:51:32;47.45;;;8.90;;
43160;SDS011;40968;52.342;5.528;2023-11-19T01:53:59;56.60;;;9.80;;
43160;SDS011;40968;52.342;5.528;2023-11-19T01:56:27;45.25;;;8.38;;
43160;SDS011;40968;52.342;5.528;2023-11-19T01:58:57;70.85;;;9.32;;
43160;SDS011;40968;52.342;5.528;2023-11-19T02:01:24;52.10;;;9.38;;
43160;SDS011;40968;52.342;5.528;2023-11-19T02:03:50;42.85;;;8.48;;
43160;SDS011;40968;52.342;5.528;2023-11-19T02:06:17;46.97;;;9.15;;
43160;SDS011;40968;52.342;5.528;2023-11-19T02:08:44;55.35;;;8.82;;
43160;SDS011;40968;52.342;5.528;2023-11-19T02:11:11;50.00;;;9.18;;
43160;SDS011;40968;52.342;5.528;2023-11-19T02:13:37;48.45;;;9.52;;
43160;SDS011;40968;52.342;5.528;2023-11-19T02:16:07;64.53;;;10.35;;
43160;SDS011;40968;52.342;5.528;2023-11-19T02:18:36;66.53;;;9.95;;
43160;SDS011;40968;52.342;5.528;2023-11-19T02:21:02;45.42;;;8.85;;
43160;SDS011;40968;52.342;5.528;2023-11-19T02:23:30;69.68;;;10.20;;
43160;SDS011;40968;52.342;5.528;2023-11-19T02:26:02;52.90;;;10.05;;
43160;SDS011;40968;52.342;5.528;2023-11-19T02:28:33;46.08;;;10.82;;
43160;SDS011;40968;52.342;5.528;2023-11-19T02:31:00;53.22;;;10.50;;
43160;SDS011;40968;52.342;5.528;2023-11-19T02:33:26;71.22;;;10.52;;
43160;SDS011;40968;52.342;5.528;2023-11-19T02:35:53;60.70;;;11.90;;
43160;SDS011;40968;52.342;5.528;2023-11-19T02:38:20;48.13;;;10.45;;
43160;SDS011;40968;52.342;5.528;2023-11-19T02:40:46;54.53;;;9.63;;
43160;SDS011;40968;52.342;5.528;2023-11-19T02:43:14;55.08;;;10.27;;
43160;SDS011;40968;52.342;5.528;2023-11-19T02:45:43;72.93;;;10.95;;
43160;SDS011;40968;52.342;5.528;2023-11-19T02:48:10;47.83;;;9.30;;
43160;SDS011;40968;52.342;5.528;2023-11-19T02:50:37;59.05;;;10.55;;
43160;SDS011;40968;52.342;5.528;2023-11-19T02:53:04;43.38;;;8.82;;
43160;SDS011;40968;52.342;5.528;2023-11-19T02:55:31;55.95;;;10.13;;
43160;SDS011;40968;52.342;5.528;2023-11-19T02:58:02;51.40;;;9.90;;
43160;SDS011;40968;52.342;5.528;2023-11-19T03:00:46;50.45;;;9.68;;
43160;SDS011;40968;52.342;5.528;2023-11-19T03:03:17;57.05;;;10.38;;
43160;SDS011;40968;52.342;5.528;2023-11-19T03:05:45;64.75;;;11.88;;
43160;SDS011;40968;52.342;5.528;2023-11-19T03:08:13;83.18;;;11.15;;
43160;SDS011;40968;52.342;5.528;2023-11-19T03:10:40;53.90;;;11.50;;
43160;SDS011;40968;52.342;5.528;2023-11-19T03:13:08;76.03;;;9.88;;
43160;SDS011;40968;52.342;5.528;2023-11-19T03:15:37;70.50;;;10.10;;
43160;SDS011;40968;52.342;5.528;2023-11-19T03:18:05;61.92;;;10.48;;
43160;SDS011;40968;52.342;5.528;2023-11-19T03:20:32;62.10;;;10.57;;
43160;SDS011;40968;52.342;5.528;2023-11-19T03:22:58;64.43;;;10.73;;
43160;SDS011;40968;52.342;5.528;2023-11-19T03:25:26;62.80;;;10.73;;
43160;SDS011;40968;52.342;5.528;2023-11-19T03:27:58;64.43;;;12.07;;
43160;SDS011;40968;52.342;5.528;2023-11-19T03:30:24;63.42;;;11.68;;
43160;SDS011;40968;52.342;5.528;2023-11-19T03:32:51;63.13;;;10.30;;
43160;SDS011;40968;52.342;5.528;2023-11-19T03:35:19;54.45;;;10.30;;
43160;SDS011;40968;52.342;5.528;2023-11-19T03:37:45;52.95;;;10.05;;
43160;SDS011;40968;52.342;5.528;2023-11-19T03:40:12;76.00;;;12.23;;
43160;SDS011;40968;52.342;5.528;2023-11-19T03:42:39;64.03;;;10.27;;
43160;SDS011;40968;52.342;5.528;2023-11-19T03:45:06;67.90;;;11.07;;
43160;SDS011;40968;52.342;5.528;2023-11-19T03:47:34;68.93;;;10.70;;
43160;SDS011;40968;52.342;5.528;2023-11-19T03:50:01;51.28;;;9.98;;
43160;SDS011;40968;52.342;5.528;2023-11-19T03:52:30;59.70;;;11.05;;
43160;SDS011;40968;52.342;5.528;2023-11-19T03:54:57;59.30;;;10.68;;
43160;SDS011;40968;52.342;5.528;2023-11-19T03:57:23;62.47;;;10.50;;
43160;SDS011;40968;52.342;5.528;2023-11-19T03:59:50;69.38;;;11.10;;
43160;SDS011;40968;52.342;5.528;2023-11-19T04:02:17;62.60;;;10.70;;
43160;SDS011;40968;52.342;5.528;2023-11-19T04:04:43;72.38;;;12.10;;
43160;SDS011;40968;52.342;5.528;2023-11-19T04:07:10;61.30;;;10.80;;
43160;SDS011;40968;52.342;5.528;2023-11-19T04:09:38;57.05;;;10.82;;
43160;SDS011;40968;52.342;5.528;2023-11-19T04:12:05;45.88;;;10.18;;
43160;SDS011;40968;52.342;5.528;2023-11-19T04:14:32;50.35;;;9.55;;
43160;SDS011;40968;52.342;5.528;2023-11-19T04:16:58;75.30;;;11.98;;
43160;SDS011;40968;52.342;5.528;2023-11-19T04:19:25;65.97;;;10.30;;
43160;SDS011;40968;52.342;5.528;2023-11-19T04:21:51;71.57;;;10.85;;
43160;SDS011;40968;52.342;5.528;2023-11-19T04:24:18;83.18;;;11.18;;
43160;SDS011;40968;52.342;5.528;2023-11-19T04:26:46;53.60;;;11.25;;
43160;SDS011;40968;52.342;5.528;2023-11-19T04:29:13;62.67;;;11.05;;
43160;SDS011;40968;52.342;5.528;2023-11-19T04:31:42;54.78;;;10.20;;
43160;SDS011;40968;52.342;5.528;2023-11-19T04:34:10;54.78;;;10.88;;
43160;SDS011;40968;52.342;5.528;2023-11-19T04:36:37;50.00;;;11.38;;
43160;SDS011;40968;52.342;5.528;2023-11-19T04:39:05;64.68;;;10.60;;
43160;SDS011;40968;52.342;5.528;2023-11-19T04:41:34;55.35;;;10.93;;
43160;SDS011;40968;52.342;5.528;2023-11-19T04:44:02;63.47;;;11.50;;
43160;SDS011;40968;52.342;5.528;2023-11-19T04:46:29;76.88;;;12.70;;
43160;SDS011;40968;52.342;5.528;2023-11-19T04:48:55;79.75;;;11.80;;
43160;SDS011;40968;52.342;5.528;2023-11-19T04:51:22;61.63;;;11.02;;
43160;SDS011;40968;52.342;5.528;2023-11-19T04:53:48;59.22;;;10.43;;
43160;SDS011;40968;52.342;5.528;2023-11-19T04:56:15;55.17;;;9.95;;
43160;SDS011;40968;52.342;5.528;2023-11-19T04:58:44;65.55;;;10.65;;
43160;SDS011;40968;52.342;5.528;2023-11-19T05:01:14;51.65;;;10.85;;
43160;SDS011;40968;52.342;5.528;2023-11-19T05:03:42;56.03;;;10.43;;
43160;SDS011;40968;52.342;5.528;2023-11-19T05:06:09;58.88;;;11.93;;
43160;SDS011;40968;52.342;5.528;2023-11-19T05:08:36;57.75;;;10.98;;
43160;SDS011;40968;52.342;5.528;2023-11-19T05:11:02;75.15;;;11.73;;
43160;SDS011;40968;52.342;5.528;2023-11-19T05:13:31;65.30;;;12.15;;
43160;SDS011;40968;52.342;5.528;2023-11-19T05:15:57;49.60;;;10.55;;
43160;SDS011;40968;52.342;5.528;2023-11-19T05:18:25;42.67;;;10.50;;
43160;SDS011;40968;52.342;5.528;2023-11-19T05:20:52;73.60;;;11.30;;
43160;SDS011;40968;52.342;5.528;2023-11-19T05:23:18;51.28;;;10.45;;
43160;SDS011;40968;52.342;5.528;2023-11-19T05:25:45;54.97;;;11.15;;
43160;SDS011;40968;52.342;5.528;2023-11-19T05:28:12;58.80;;;11.48;;
43160;SDS011;40968;52.342;5.528;2023-11-19T05:30:39;62.85;;;12.68;;
43160;SDS011;40968;52.342;5.528;2023-11-19T05:33:06;59.35;;;11.95;;
43160;SDS011;40968;52.342;5.528;2023-11-19T05:35:35;47.97;;;10.60;;
43160;SDS011;40968;52.342;5.528;2023-11-19T05:38:02;62.85;;;10.77;;
43160;SDS011;40968;52.342;5.528;2023-11-19T05:40:28;51.40;;;10.80;;
43160;SDS011;40968;52.342;5.528;2023-11-19T05:42:55;62.25;;;10.77;;
43160;SDS011;40968;52.342;5.528;2023-11-19T05:45:22;57.92;;;10.55;;
43160;SDS011;40968;52.342;5.528;2023-11-19T05:47:48;49.92;;;11.00;;
43160;SDS011;40968;52.342;5.528;2023-11-19T05:50:16;69.68;;;11.00;;
43160;SDS011;40968;52.342;5.528;2023-11-19T05:52:44;69.38;;;10.80;;
43160;SDS011;40968;52.342;5.528;2023-11-19T05:55:12;53.88;;;10.70;;
43160;SDS011;40968;52.342;5.528;2023-11-19T05:57:39;56.70;;;10.10;;
43160;SDS011;40968;52.342;5.528;2023-11-19T06:00:06;58.70;;;10.48;;
43160;SDS011;40968;52.342;5.528;2023-11-19T06:02:35;52.15;;;10.27;;
43160;SDS011;40968;52.342;5.528;2023-11-19T06:05:03;49.65;;;9.82;;
43160;SDS011;40968;52.342;5.528;2023-11-19T06:07:31;61.60;;;10.93;;
43160;SDS011;40968;52.342;5.528;2023-11-19T06:09:59;61.20;;;9.63;;
43160;SDS011;40968;52.342;5.528;2023-11-19T06:12:26;43.70;;;8.95;;
43160;SDS011;40968;52.342;5.528;2023-11-19T06:14:52;57.67;;;11.13;;
43160;SDS011;40968;52.342;5.528;2023-11-19T06:17:19;53.33;;;9.82;;
43160;SDS011;40968;52.342;5.528;2023-11-19T06:19:45;62.03;;;9.55;;
43160;SDS011;40968;52.342;5.528;2023-11-19T06:22:12;64.88;;;12.07;;
43160;SDS011;40968;52.342;5.528;2023-11-19T06:24:39;59.40;;;10.48;;
43160;SDS011;40968;52.342;5.528;2023-11-19T06:27:07;56.08;;;9.57;;
43160;SDS011;40968;52.342;5.528;2023-11-19T06:29:33;62.08;;;10.73;;
43160;SDS011;40968;52.342;5.528;2023-11-19T06:32:00;58.58;;;9.65;;
43160;SDS011;40968;52.342;5.528;2023-11-19T06:34:26;41.13;;;8.05;;
43160;SDS011;40968;52.342;5.528;2023-11-19T06:36:53;52.10;;;10.27;;
43160;SDS011;40968;52.342;5.528;2023-11-19T06:39:19;58.97;;;9.75;;
43160;SDS011;40968;52.342;5.528;2023-11-19T06:41:46;60.60;;;9.50;;
43160;SDS011;40968;52.342;5.528;2023-11-19T06:44:15;55.15;;;9.68;;
43160;SDS011;40968;52.342;5.528;2023-11-19T06:46:41;43.00;;;9.57;;
43160;SDS011;40968;52.342;5.528;2023-11-19T06:49:08;58.30;;;9.40;;
43160;SDS011;40968;52.342;5.528;2023-11-19T06:51:35;59.40;;;9.50;;
43160;SDS011;40968;52.342;5.528;2023-11-19T06:54:01;52.30;;;9.20;;
43160;SDS011;40968;52.342;5.528;2023-11-19T06:56:28;63.28;;;10.32;;
43160;SDS011;40968;52.342;5.528;2023-11-19T06:58:54;53.60;;;10.00;;
43160;SDS011;40968;52.342;5.528;2023-11-19T07:01:22;48.08;;;8.55;;
43160;SDS011;40968;52.342;5.528;2023-11-19T07:03:49;52.40;;;9.60;;
43160;SDS011;40968;52.342;5.528;2023-11-19T07:06:16;57.22;;;10.10;;
43160;SDS011;40968;52.342;5.528;2023-11-19T07:08:43;60.38;;;9.63;;
43160;SDS011;40968;52.342;5.528;2023-11-19T07:11:10;57.58;;;9.25;;
43160;SDS011;40968;52.342;5.528;2023-11-19T07:13:39;57.67;;;10.55;;
43160;SDS011;40968;52.342;5.528;2023-11-19T07:16:07;65.07;;;10.35;;
43160;SDS011;40968;52.342;5.528;2023-11-19T07:18:37;47.85;;;10.70;;
43160;SDS011;40968;52.342;5.528;2023-11-19T07:21:04;55.92;;;10.25;;
43160;SDS011;40968;52.342;5.528;2023-11-19T07:23:31;59.05;;;10.05;;
43160;SDS011;40968;52.342;5.528;2023-11-19T07:25:58;58.58;;;10.07;;
43160;SDS011;40968;52.342;5.528;2023-11-19T07:28:24;56.25;;;9.63;;
43160;SDS011;40968;52.342;5.528;2023-11-19T07:30:51;46.70;;;9.57;;
43160;SDS011;40968;52.342;5.528;2023-11-19T07:33:17;73.30;;;10.45;;
43160;SDS011;40968;52.342;5.528;2023-11-19T07:35:45;44.30;;;10.05;;
43160;SDS011;40968;52.342;5.528;2023-11-19T07:38:12;60.15;;;10.57;;
43160;SDS011;40968;52.342;5.528;2023-11-19T07:40:38;50.45;;;9.07;;
43160;SDS011;40968;52.342;5.528;2023-11-19T07:43:05;44.55;;;9.13;;
43160;SDS011;40968;52.342;5.528;2023-11-19T07:45:32;54.42;;;10.85;;
43160;SDS011;40968;52.342;5.528;2023-11-19T07:47:59;46.90;;;10.05;;
43160;SDS011;40968;52.342;5.528;2023-11-19T07:50:26;72.15;;;11.82;;
43160;SDS011;40968;52.342;5.528;2023-11-19T07:52:54;69.85;;;11.07;;
43160;SDS011;40968;52.342;5.528;2023-11-19T07:55:21;51.95;;;10.02;;
43160;SDS011;40968;52.342;5.528;2023-11-19T07:57:47;56.20;;;9.73;;
43160;SDS011;40968;52.342;5.528;2023-11-19T08:00:14;58.92;;;11.15;;
43160;SDS011;40968;52.342;5.528;2023-11-19T08:02:41;60.85;;;10.02;;
43160;SDS011;40968;52.342;5.528;2023-11-19T08:05:08;59.50;;;10.23;;
43160;SDS011;40968;52.342;5.528;2023-11-19T08:07:35;48.03;;;10.68;;
43160;SDS011;40968;52.342;5.528;2023-11-19T08:10:03;56.45;;;10.50;;
43160;SDS011;40968;52.342;5.528;2023-11-19T08:12:34;42.08;;;8.60;;
43160;SDS011;40968;52.342;5.528;2023-11-19T08:15:02;50.22;;;10.77;;
43160;SDS011;40968;52.342;5.528;2023-11-19T08:17:29;49.03;;;9.52;;
43160;SDS011;40968;52.342;5.528;2023-11-19T08:19:56;56.55;;;9.75;;
43160;SDS011;40968;52.342;5.528;2023-11-19T08:22:24;59.78;;;9.10;;
43160;SDS011;40968;52.342;5.528;2023-11-19T08:24:50;62.00;;;11.68;;
43160;SDS011;40968;52.342;5.528;2023-11-19T08:27:18;48.13;;;10.77;;
43160;SDS011;40968;52.342;5.528;2023-11-19T08:29:51;49.58;;;8.85;;
43160;SDS011;40968;52.342;5.528;2023-11-19T08:32:18;68.90;;;12.02;;
43160;SDS011;40968;52.342;5.528;2023-11-19T08:34:44;58.83;;;10.75;;
43160;SDS011;40968;52.342;5.528;2023-11-19T08:37:11;59.58;;;10.05;;
43160;SDS011;40968;52.342;5.528;2023-11-19T08:39:38;70.35;;;10.38;;
43160;SDS011;40968;52.342;5.528;2023-11-19T08:42:04;82.47;;;11.65;;
43160;SDS011;40968;52.342;5.528;2023-11-19T08:44:33;51.45;;;9.23;;
43160;SDS011;40968;52.342;5.528;2023-11-19T08:46:59;46.67;;;10.38;;
43160;SDS011;40968;52.342;5.528;2023-11-19T08:49:26;63.30;;;9.38;;
43160;SDS011;40968;52.342;5.528;2023-11-19T08:51:52;49.65;;;8.65;;
43160;SDS011;40968;52.342;5.528;2023-11-19T08:54:19;50.30;;;9.40;;
43160;SDS011;40968;52.342;5.528;2023-11-19T08:56:47;54.30;;;9.63;;
43160;SDS011;40968;52.342;5.528;2023-11-19T08:59:15;51.10;;;9.00;;
43160;SDS011;40968;52.342;5.528;2023-11-19T09:01:44;70.75;;;10.75;;
43160;SDS011;40968;52.342;5.528;2023-11-19T09:04:10;49.65;;;10.68;;
43160;SDS011;40968;52.342;5.528;2023-11-19T09:06:37;51.08;;;8.70;;
43160;SDS011;40968;52.342;5.528;2023-11-19T09:09:04;55.63;;;10.13;;
43160;SDS011;40968;52.342;5.528;2023-11-19T09:11:30;52.15;;;10.38;;
43160;SDS011;40968;52.342;5.528;2023-11-19T09:13:57;40.78;;;8.95;;
43160;SDS011;40968;52.342;5.528;2023-11-19T09:16:24;56.25;;;11.00;;
43160;SDS011;40968;52.342;5.528;2023-11-19T09:18:52;61.72;;;12.30;;
43160;SDS011;40968;52.342;5.528;2023-11-19T09:21:19;43.95;;;10.60;;
43160;SDS011;40968;52.342;5.528;2023-11-19T09:23:45;66.18;;;9.95;;
43160;SDS011;40968;52.342;5.528;2023-11-19T09:26:14;69.68;;;10.68;;
43160;SDS011;40968;52.342;5.528;2023-11-19T09:28:40;56.03;;;11.63;;
43160;SDS011;40968;52.342;5.528;2023-11-19T09:31:12;67.45;;;10.63;;
43160;SDS011;40968;52.342;5.528;2023-11-19T09:33:39;62.72;;;9.73;;
43160;SDS011;40968;52.342;5.528;2023-11-19T09:36:07;49.85;;;10.30;;
43160;SDS011;40968;52.342;5.528;2023-11-19T09:38:35;67.30;;;10.73;;
43160;SDS011;40968;52.342;5.528;2023-11-19T09:41:03;53.38;;;9.45;;
43160;SDS011;40968;52.342;5.528;2023-11-19T09:43:33;70.68;;;12.63;;
43160;SDS011;40968;52.342;5.528;2023-11-19T09:46:00;58.47;;;10.85;;
43160;SDS011;40968;52.342;5.528;2023-11-19T09:48:32;54.60;;;10.05;;
43160;SDS011;40968;52.342;5.528;2023-11-19T09:50:59;49.90;;;9.55;;
43160;SDS011;40968;52.342;5.528;2023-11-19T09:53:28;70.75;;;11.15;;
43160;SDS011;40968;52.342;5.528;2023-11-19T09:55:55;49.53;;;9.45;;
43160;SDS011;40968;52.342;5.528;2023-11-19T09:58:22;56.45;;;11.63;;
43160;SDS011;40968;52.342;5.528;2023-11-19T10:00:49;68.15;;;11.20;;
43160;SDS011;40968;52.342;5.528;2023-11-19T10:03:17;58.50;;;9.27;;
43160;SDS011;40968;52.342;5.528;2023-11-19T10:05:44;66.07;;;10.20;;
43160;SDS011;40968;52.342;5.528;2023-11-19T10:08:10;69.88;;;9.68;;
43160;SDS011;40968;52.342;5.528;2023-11-19T10:10:38;48.47;;;9.35;;
43160;SDS011;40968;52.342;5.528;2023-11-19T10:13:05;47.00;;;9.23;;
43160;SDS011;40968;52.342;5.528;2023-11-19T10:15:35;58.17;;;11.10;;
43160;SDS011;40968;52.342;5.528;2023-11-19T10:18:03;59.65;;;9.88;;
43160;SDS011;40968;52.342;5.528;2023-11-19T10:20:34;60.03;;;10.60;;
43160;SDS011;40968;52.342;5.528;2023-11-19T10:23:01;57.97;;;8.85;;
43160;SDS011;40968;52.342;5.528;2023-11-19T10:25:28;48.33;;;9.50;;
43160;SDS011;40968;52.342;5.528;2023-11-19T10:27:56;56.03;;;10.65;;
43160;SDS011;40968;52.342;5.528;2023-11-19T10:30:24;57.60;;;9.50;;
43160;SDS011;40968;52.342;5.528;2023-11-19T10:35:50;44.50;;;8.82;;
43160;SDS011;40968;52.342;5.528;2023-11-19T10:38:18;64.97;;;9.75;;
43160;SDS011;40968;52.342;5.528;2023-11-19T10:40:44;57.72;;;10.00;;
43160;SDS011;40968;52.342;5.528;2023-11-19T10:43:12;44.72;;;8.88;;
43160;SDS011;40968;52.342;5.528;2023-11-19T10:45:39;56.35;;;8.85;;
43160;SDS011;40968;52.342;5.528;2023-11-19T10:48:07;53.58;;;9.95;;
43160;SDS011;40968;52.342;5.528;2023-11-19T10:50:33;52.25;;;9.73;;
43160;SDS011;40968;52.342;5.528;2023-11-19T10:53:01;50.42;;;10.05;;
43160;SDS011;40968;52.342;5.528;2023-11-19T10:55:29;56.60;;;9.88;;
43160;SDS011;40968;52.342;5.528;2023-11-19T10:57:58;62.15;;;9.77;;
43160;SDS011;40968;52.342;5.528;2023-11-19T11:00:28;63.05;;;9.55;;
43160;SDS011;40968;52.342;5.528;2023-11-19T11:03:00;50.43;;;9.60;;
43160;SDS011;40968;52.342;5.528;2023-11-19T11:05:27;45.30;;;9.25;;
43160;SDS011;40968;52.342;5.528;2023-11-19T11:07:58;42.97;;;8.13;;
43160;SDS011;40968;52.342;5.528;2023-11-19T11:10:26;54.25;;;9.18;;
43160;SDS011;40968;52.342;5.528;2023-11-19T11:12:54;46.17;;;8.88;;
43160;SDS011;40968;52.342;5.528;2023-11-19T11:15:26;42.13;;;7.63;;
43160;SDS011;40968;52.342;5.528;2023-11-19T11:20:25;35.47;;;7.80;;
43160;SDS011;40968;52.342;5.528;2023-11-19T11:22:54;49.47;;;8.38;;
43160;SDS011;40968;52.342;5.528;2023-11-19T11:28:06;36.08;;;7.50;;
43160;SDS011;40968;52.342;5.528;2023-11-19T11:30:53;51.45;;;7.38;;
43160;SDS011;40968;52.342;5.528;2023-11-19T11:33:34;43.38;;;7.80;;
43160;SDS011;40968;52.342;5.528;2023-11-19T11:36:17;44.63;;;8.38;;
43160;SDS011;40968;52.342;5.528;2023-11-19T11:38:47;48.53;;;8.50;;
43160;SDS011;40968;52.342;5.528;2023-11-19T11:41:15;43.28;;;7.55;;
43160;SDS011;40968;52.342;5.528;2023-11-19T11:43:44;41.33;;;7.45;;
43160;SDS011;40968;52.342;5.528;2023-11-19T11:49:12;48.80;;;8.10;;
43160;SDS011;40968;52.342;5.528;2023-11-19T11:52:01;38.67;;;7.28;;
43160;SDS011;40968;52.342;5.528;2023-11-19T11:54:29;38.35;;;7.00;;
43160;SDS011;40968;52.342;5.528;2023-11-19T11:57:03;41.95;;;7.05;;
43160;SDS011;40968;52.342;5.528;2023-11-19T11:59:36;32.22;;;6.75;;
43160;SDS011;40968;52.342;5.528;2023-11-19T12:02:03;30.48;;;7.03;;
43160;SDS011;40968;52.342;5.528;2023-11-19T12:04:31;41.60;;;7.72;;
43160;SDS011;40968;52.342;5.528;2023-11-19T12:07:04;36.55;;;6.50;;
43160;SDS011;40968;52.342;5.528;2023-11-19T12:09:31;30.17;;;6.65;;
43160;SDS011;40968;52.342;5.528;2023-11-19T12:12:07;32.10;;;6.38;;
43160;SDS011;40968;52.342;5.528;2023-11-19T12:17:42;33.67;;;7.80;;
43160;SDS011;40968;52.342;5.528;2023-11-19T12:20:15;25.15;;;5.90;;
43160;SDS011;40968;52.342;5.528;2023-11-19T12:22:43;35.00;;;6.85;;
43160;SDS011;40968;52.342;5.528;2023-11-19T12:25:11;29.65;;;5.90;;
43160;SDS011;40968;52.342;5.528;2023-11-19T12:27:39;28.90;;;5.88;;
43160;SDS011;40968;52.342;5.528;2023-11-19T12:30:07;35.05;;;6.25;;
43160;SDS011;40968;52.342;5.528;2023-11-19T12:32:38;26.65;;;5.50;;
43160;SDS011;40968;52.342;5.528;2023-11-19T12:35:05;29.73;;;6.47;;
43160;SDS011;40968;52.342;5.528;2023-11-19T12:37:39;36.03;;;6.47;;
43160;SDS011;40968;52.342;5.528;2023-11-19T12:42:43;34.90;;;6.55;;
43160;SDS011;40968;52.342;5.528;2023-11-19T12:45:10;39.10;;;7.35;;
43160;SDS011;40968;52.342;5.528;2023-11-19T12:47:37;45.17;;;7.55;;
43160;SDS011;40968;52.342;5.528;2023-11-19T12:50:04;37.22;;;7.78;;
43160;SDS011;40968;52.342;5.528;2023-11-19T12:52:33;48.17;;;8.60;;
43160;SDS011;40968;52.342;5.528;2023-11-19T12:55:01;45.05;;;8.23;;
43160;SDS011;40968;52.342;5.528;2023-11-19T12:57:37;56.85;;;9.85;;
43160;SDS011;40968;52.342;5.528;2023-11-19T13:00:05;42.30;;;8.65;;
43160;SDS011;40968;52.342;5.528;2023-11-19T13:02:45;44.95;;;8.68;;
43160;SDS011;40968;52.342;5.528;2023-11-19T13:05:20;56.10;;;8.90;;
43160;SDS011;40968;52.342;5.528;2023-11-19T13:07:48;47.45;;;8.32;;
43160;SDS011;40968;52.342;5.528;2023-11-19T13:10:16;47.25;;;9.50;;
43160;SDS011;40968;52.342;5.528;2023-11-19T13:12:43;53.35;;;9.13;;
43160;SDS011;40968;52.342;5.528;2023-11-19T13:15:22;32.63;;;6.97;;
43160;SDS011;40968;52.342;5.528;2023-11-19T13:17:49;52.87;;;8.13;;
43160;SDS011;40968;52.342;5.528;2023-11-19T13:20:16;34.35;;;6.47;;
43160;SDS011;40968;52.342;5.528;2023-11-19T13:22:53;46.05;;;7.30;;
43160;SDS011;40968;52.342;5.528;2023-11-19T13:25:21;38.08;;;7.18;;
43160;SDS011;40968;52.342;5.528;2023-11-19T13:27:48;23.63;;;5.40;;
43160;SDS011;40968;52.342;5.528;2023-11-19T13:30:15;31.88;;;6.00;;
43160;SDS011;40968;52.342;5.528;2023-11-19T13:32:42;38.22;;;6.90;;
43160;SDS011;40968;52.342;5.528;2023-11-19T13:35:09;19.58;;;5.53;;
43160;SDS011;40968;52.342;5.528;2023-11-19T13:37:36;24.25;;;4.88;;
43160;SDS011;40968;52.342;5.528;2023-11-19T13:40:03;27.70;;;5.63;;
43160;SDS011;40968;52.342;5.528;2023-11-19T13:42:31;26.75;;;5.18;;
43160;SDS011;40968;52.342;5.528;2023-11-19T13:44:57;35.92;;;6.03;;
43160;SDS011;40968;52.342;5.528;2023-11-19T13:47:24;21.55;;;4.65;;
43160;SDS011;40968;52.342;5.528;2023-11-19T13:49:51;24.58;;;5.63;;
43160;SDS011;40968;52.342;5.528;2023-11-19T13:52:17;30.42;;;6.10;;
43160;SDS011;40968;52.342;5.528;2023-11-19T13:54:44;33.50;;;6.50;;
43160;SDS011;40968;52.342;5.528;2023-11-19T13:57:10;26.98;;;6.10;;
43160;SDS011;40968;52.342;5.528;2023-11-19T13:59:40;35.53;;;6.90;;
43160;SDS011;40968;52.342;5.528;2023-11-19T14:02:07;40.08;;;5.63;;
43160;SDS011;40968;52.342;5.528;2023-11-19T14:04:33;34.40;;;6.13;;
43160;SDS011;40968;52.342;5.528;2023-11-19T14:07:00;22.40;;;6.57;;
43160;SDS011;40968;52.342;5.528;2023-11-19T14:09:26;37.83;;;7.05;;
43160;SDS011;40968;52.342;5.528;2023-11-19T14:11:54;38.45;;;6.32;;
43160;SDS011;40968;52.342;5.528;2023-11-19T14:14:20;41.28;;;7.30;;
43160;SDS011;40968;52.342;5.528;2023-11-19T14:16:48;38.70;;;7.53;;
43160;SDS011;40968;52.342;5.528;2023-11-19T14:19:15;44.90;;;7.70;;
43160;SDS011;40968;52.342;5.528;2023-11-19T14:21:41;37.88;;;7.13;;
43160;SDS011;40968;52.342;5.528;2023-11-19T14:24:09;30.80;;;7.03;;
43160;SDS011;40968;52.342;5.528;2023-11-19T14:26:36;38.63;;;7.30;;
43160;SDS011;40968;52.342;5.528;2023-11-19T14:29:03;53.00;;;7.18;;
43160;SDS011;40968;52.342;5.528;2023-11-19T14:31:29;58.13;;;7.63;;
43160;SDS011;40968;52.342;5.528;2023-11-19T14:33:58;28.30;;;7.30;;
43160;SDS011;40968;52.342;5.528;2023-11-19T14:36:26;39.47;;;8.05;;
43160;SDS011;40968;52.342;5.528;2023-11-19T14:38:52;34.92;;;6.78;;
43160;SDS011;40968;52.342;5.528;2023-11-19T14:41:19;34.97;;;6.93;;
43160;SDS011;40968;52.342;5.528;2023-11-19T14:43:46;36.15;;;6.57;;
43160;SDS011;40968;52.342;5.528;2023-11-19T14:46:13;57.65;;;10.15;;
43160;SDS011;40968;52.342;5.528;2023-11-19T14:48:39;46.38;;;8.27;;